sensor_id;sensor_type;location;lat;lon;timestamp;temperature;humidity
55036;DHT22;40936;53.008;6.556;2023-03-21T00:00:18;11.90;99.90
55036;DHT22;40936;53.008;6.556;2023-03-21T00:02:44;11.80;99.90
55036;DHT22;40936;53.008;6.556;2023-03-21T00:05:10;12.40;99.90
55036;DHT22;40936;53.008;6.556;2023-03-21T00:07:36;12.40;99.90
55036;DHT22;40936;53.008;6.556;2023-03-21T00:10:03;12.20;99.90
55036;DHT22;40936;53.008;6.556;2023-03-21T00:12:29;11.90;99.90
55036;DHT22;40936;53.008;6.556;2023-03-21T00:14:57;12.40;99.90
55036;DHT22;40936;53.008;6.556;2023-03-21T00:17:31;12.50;99.90
55036;DHT22;40936;53.008;6.556;2023-03-21T00:20:02;12.00;99.90
55036;DHT22;40936;53.008;6.556;2023-03-21T00:22:34;12.20;99.90
55036;DHT22;40936;53.008;6.556;2023-03-21T00:25:00;11.80;99.90
55036;DHT22;40936;53.008;6.556;2023-03-21T00:27:26;12.50;99.90
55036;DHT22;40936;53.008;6.556;2023-03-21T00:29:52;12.50;99.90
55036;DHT22;40936;53.008;6.556;2023-03-21T00:32:19;11.90;99.90
55036;DHT22;40936;53.008;6.556;2023-03-21T00:34:46;12.60;99.90
55036;DHT22;40936;53.008;6.556;2023-03-21T00:37:12;13.20;99.90
55036;DHT22;40936;53.008;6.556;2023-03-21T00:39:41;12.10;99.90
55036;DHT22;40936;53.008;6.556;2023-03-21T00:42:09;11.90;99.90
55036;DHT22;40936;53.008;6.556;2023-03-21T00:44:34;12.20;99.90
55036;DHT22;40936;53.008;6.556;2023-03-21T00:47:02;12.50;99.90
55036;DHT22;40936;53.008;6.556;2023-03-21T00:49:28;11.80;99.90
55036;DHT22;40936;53.008;6.556;2023-03-21T00:51:59;12.50;99.90
55036;DHT22;40936;53.008;6.556;2023-03-21T00:54:25;12.50;99.90
55036;DHT22;40936;53.008;6.556;2023-03-21T00:56:50;13.00;99.90
55036;DHT22;40936;53.008;6.556;2023-03-21T01:01:42;13.50;99.90
55036;DHT22;40936;53.008;6.556;2023-03-21T01:04:12;11.80;99.90
55036;DHT22;40936;53.008;6.556;2023-03-21T01:06:40;11.90;99.90
55036;DHT22;40936;53.008;6.556;2023-03-21T01:09:08;11.80;99.90
55036;DHT22;40936;53.008;6.556;2023-03-21T01:11:36;12.00;99.90
55036;DHT22;40936;53.008;6.556;2023-03-21T01:14:01;12.50;99.90
55036;DHT22;40936;53.008;6.556;2023-03-21T01:16:27;12.00;99.90
55036;DHT22;40936;53.008;6.556;2023-03-21T01:18:53;15.40;99.90
55036;DHT22;40936;53.008;6.556;2023-03-21T01:21:19;12.70;99.90
55036;DHT22;40936;53.008;6.556;2023-03-21T01:23:45;11.20;99.90
55036;DHT22;40936;53.008;6.556;2023-03-21T01:26:12;11.80;99.90
55036;DHT22;40936;53.008;6.556;2023-03-21T01:28:38;12.60;99.90
55036;DHT22;40936;53.008;6.556;2023-03-21T01:31:05;12.00;99.90
55036;DHT22;40936;53.008;6.556;2023-03-21T01:33:32;12.50;99.90
55036;DHT22;40936;53.008;6.556;2023-03-21T01:35:58;12.50;99.90
55036;DHT22;40936;53.008;6.556;2023-03-21T01:38:25;10.90;99.90
55036;DHT22;40936;53.008;6.556;2023-03-21T01:40:51;11.90;99.90
55036;DHT22;40936;53.008;6.556;2023-03-21T01:43:32;11.90;99.90
55036;DHT22;40936;53.008;6.556;2023-03-21T01:48:41;12.30;99.90
55036;DHT22;40936;53.008;6.556;2023-03-21T01:51:10;12.40;99.90
55036;DHT22;40936;53.008;6.556;2023-03-21T01:53:37;12.00;99.90
55036;DHT22;40936;53.008;6.556;2023-03-21T01:56:25;12.20;99.90
55036;DHT22;40936;53.008;6.556;2023-03-21T01:58:55;11.80;99.90
55036;DHT22;40936;53.008;6.556;2023-03-21T02:01:23;12.60;99.90
55036;DHT22;40936;53.008;6.556;2023-03-21T02:03:51;12.20;99.90
55036;DHT22;40936;53.008;6.556;2023-03-21T02:09:05;12.00;99.90
55036;DHT22;40936;53.008;6.556;2023-03-21T02:11:34;11.90;99.90
55036;DHT22;40936;53.008;6.556;2023-03-21T02:14:00;12.00;99.90
55036;DHT22;40936;53.008;6.556;2023-03-21T02:17:02;11.90;99.90
55036;DHT22;40936;53.008;6.556;2023-03-21T02:36:54;9.70;99.90
55036;DHT22;40936;53.008;6.556;2023-03-21T02:42:18;11.50;99.90
55036;DHT22;40936;53.008;6.556;2023-03-21T02:45:29;12.50;99.90
55036;DHT22;40936;53.008;6.556;2023-03-21T02:47:45;12.40;99.90
55036;DHT22;40936;53.008;6.556;2023-03-21T02:52:45;12.60;99.90
55036;DHT22;40936;53.008;6.556;2023-03-21T02:55:16;12.50;99.90
55036;DHT22;40936;53.008;6.556;2023-03-21T02:57:45;12.60;99.90
55036;DHT22;40936;53.008;6.556;2023-03-21T03:00:15;12.60;99.90
55036;DHT22;40936;53.008;6.556;2023-03-21T03:02:41;12.20;99.90
55036;DHT22;40936;53.008;6.556;2023-03-21T03:05:23;9.10;99.90
55036;DHT22;40936;53.008;6.556;2023-03-21T03:10:24;12.10;99.90
55036;DHT22;40936;53.008;6.556;2023-03-21T03:13:32;12.50;99.90
55036;DHT22;40936;53.008;6.556;2023-03-21T03:18:56;12.50;99.90
55036;DHT22;40936;53.008;6.556;2023-03-21T03:21:38;12.10;99.90
55036;DHT22;40936;53.008;6.556;2023-03-21T03:24:12;11.80;99.90
55036;DHT22;40936;53.008;6.556;2023-03-21T03:27:01;12.50;99.90
55036;DHT22;40936;53.008;6.556;2023-03-21T03:29:29;11.80;99.90
55036;DHT22;40936;53.008;6.556;2023-03-21T03:31:59;12.50;99.90
55036;DHT22;40936;53.008;6.556;2023-03-21T03:34:29;12.30;99.90
55036;DHT22;40936;53.008;6.556;2023-03-21T03:37:01;12.20;99.90
55036;DHT22;40936;53.008;6.556;2023-03-21T03:39:34;12.10;99.90
55036;DHT22;40936;53.008;6.556;2023-03-21T03:42:06;12.30;99.90
55036;DHT22;40936;53.008;6.556;2023-03-21T03:44:33;11.80;99.90
55036;DHT22;40936;53.008;6.556;2023-03-21T03:47:08;12.60;99.90
55036;DHT22;40936;53.008;6.556;2023-03-21T03:49:53;12.50;99.90
55036;DHT22;40936;53.008;6.556;2023-03-21T03:52:23;11.90;99.90
55036;DHT22;40936;53.008;6.556;2023-03-21T03:54:52;12.60;99.90
55036;DHT22;40936;53.008;6.556;2023-03-21T03:57:19;11.90;99.90
55036;DHT22;40936;53.008;6.556;2023-03-21T03:59:45;12.40;99.90
55036;DHT22;40936;53.008;6.556;2023-03-21T04:02:12;12.20;99.90
55036;DHT22;40936;53.008;6.556;2023-03-21T04:04:38;11.90;99.90
55036;DHT22;40936;53.008;6.556;2023-03-21T04:07:06;11.80;99.90
55036;DHT22;40936;53.008;6.556;2023-03-21T04:11:58;12.10;99.90
55036;DHT22;40936;53.008;6.556;2023-03-21T04:14:24;12.40;99.90
55036;DHT22;40936;53.008;6.556;2023-03-21T04:16:50;12.60;99.90
55036;DHT22;40936;53.008;6.556;2023-03-21T04:19:17;13.40;99.90
55036;DHT22;40936;53.008;6.556;2023-03-21T04:21:43;11.90;99.90
55036;DHT22;40936;53.008;6.556;2023-03-21T04:24:09;12.50;99.90
55036;DHT22;40936;53.008;6.556;2023-03-21T04:26:36;12.30;99.90
55036;DHT22;40936;53.008;6.556;2023-03-21T04:29:02;11.90;99.90
55036;DHT22;40936;53.008;6.556;2023-03-21T04:31:29;11.90;99.90
55036;DHT22;40936;53.008;6.556;2023-03-21T04:33:59;11.90;99.90
55036;DHT22;40936;53.008;6.556;2023-03-21T04:36:27;12.00;99.90
55036;DHT22;40936;53.008;6.556;2023-03-21T04:38:58;12.60;99.90
55036;DHT22;40936;53.008;6.556;2023-03-21T04:41:28;12.00;99.90
55036;DHT22;40936;53.008;6.556;2023-03-21T04:43:54;11.90;99.90
55036;DHT22;40936;53.008;6.556;2023-03-21T04:46:20;12.50;99.90
55036;DHT22;40936;53.008;6.556;2023-03-21T04:48:46;12.50;99.90
55036;DHT22;40936;53.008;6.556;2023-03-21T04:51:12;13.70;99.90
55036;DHT22;40936;53.008;6.556;2023-03-21T04:53:37;12.10;99.90
55036;DHT22;40936;53.008;6.556;2023-03-21T04:56:05;12.60;99.90
55036;DHT22;40936;53.008;6.556;2023-03-21T04:58:31;9.80;99.90
55036;DHT22;40936;53.008;6.556;2023-03-21T05:00:57;11.90;99.90
55036;DHT22;40936;53.008;6.556;2023-03-21T05:03:23;11.90;99.90
55036;DHT22;40936;53.008;6.556;2023-03-21T05:05:49;12.60;99.90
55036;DHT22;40936;53.008;6.556;2023-03-21T05:08:15;11.70;99.90
55036;DHT22;40936;53.008;6.556;2023-03-21T05:10:41;11.90;99.90
55036;DHT22;40936;53.008;6.556;2023-03-21T05:13:07;12.00;99.90
55036;DHT22;40936;53.008;6.556;2023-03-21T05:15:33;11.90;99.90
55036;DHT22;40936;53.008;6.556;2023-03-21T05:17:59;12.40;99.90
55036;DHT22;40936;53.008;6.556;2023-03-21T05:20:34;11.90;99.90
55036;DHT22;40936;53.008;6.556;2023-03-21T05:23:00;11.90;99.90
55036;DHT22;40936;53.008;6.556;2023-03-21T05:25:26;12.00;99.90
55036;DHT22;40936;53.008;6.556;2023-03-21T05:28:00;12.10;99.90
55036;DHT22;40936;53.008;6.556;2023-03-21T05:30:27;12.00;99.90
55036;DHT22;40936;53.008;6.556;2023-03-21T05:32:53;11.90;99.90
55036;DHT22;40936;53.008;6.556;2023-03-21T05:35:19;12.60;99.90
55036;DHT22;40936;53.008;6.556;2023-03-21T05:37:45;12.50;99.90
55036;DHT22;40936;53.008;6.556;2023-03-21T05:40:11;11.90;99.90
55036;DHT22;40936;53.008;6.556;2023-03-21T05:42:38;11.90;99.90
55036;DHT22;40936;53.008;6.556;2023-03-21T05:45:04;12.50;99.90
55036;DHT22;40936;53.008;6.556;2023-03-21T05:47:30;12.60;99.90
55036;DHT22;40936;53.008;6.556;2023-03-21T05:49:56;11.90;99.90
55036;DHT22;40936;53.008;6.556;2023-03-21T05:52:21;12.50;99.90
55036;DHT22;40936;53.008;6.556;2023-03-21T05:54:47;12.00;99.90
55036;DHT22;40936;53.008;6.556;2023-03-21T05:57:15;12.60;99.90
55036;DHT22;40936;53.008;6.556;2023-03-21T05:59:43;12.60;99.90
55036;DHT22;40936;53.008;6.556;2023-03-21T06:02:09;12.10;99.90
55036;DHT22;40936;53.008;6.556;2023-03-21T06:04:36;11.90;99.90
55036;DHT22;40936;53.008;6.556;2023-03-21T06:07:02;12.60;99.90
55036;DHT22;40936;53.008;6.556;2023-03-21T06:09:27;12.60;99.90
55036;DHT22;40936;53.008;6.556;2023-03-21T06:11:55;11.90;99.90
55036;DHT22;40936;53.008;6.556;2023-03-21T06:14:22;11.90;99.90
55036;DHT22;40936;53.008;6.556;2023-03-21T06:16:48;12.30;99.90
55036;DHT22;40936;53.008;6.556;2023-03-21T06:19:15;11.90;99.90
55036;DHT22;40936;53.008;6.556;2023-03-21T06:21:41;12.60;99.90
55036;DHT22;40936;53.008;6.556;2023-03-21T06:24:07;12.50;99.90
55036;DHT22;40936;53.008;6.556;2023-03-21T06:26:33;12.00;99.90
55036;DHT22;40936;53.008;6.556;2023-03-21T06:28:58;12.80;99.90
55036;DHT22;40936;53.008;6.556;2023-03-21T06:31:24;11.90;99.90
55036;DHT22;40936;53.008;6.556;2023-03-21T06:33:51;12.00;99.90
55036;DHT22;40936;53.008;6.556;2023-03-21T06:36:18;12.30;99.90
55036;DHT22;40936;53.008;6.556;2023-03-21T06:38:43;12.00;99.90
55036;DHT22;40936;53.008;6.556;2023-03-21T06:41:11;12.70;99.90
55036;DHT22;40936;53.008;6.556;2023-03-21T06:43:37;12.00;99.90
55036;DHT22;40936;53.008;6.556;2023-03-21T06:46:03;12.60;99.90
55036;DHT22;40936;53.008;6.556;2023-03-21T06:48:30;11.80;99.90
55036;DHT22;40936;53.008;6.556;2023-03-21T06:50:56;12.10;99.90
55036;DHT22;40936;53.008;6.556;2023-03-21T06:53:23;12.50;99.90
55036;DHT22;40936;53.008;6.556;2023-03-21T06:55:52;12.60;99.90
55036;DHT22;40936;53.008;6.556;2023-03-21T06:58:19;12.20;99.90
55036;DHT22;40936;53.008;6.556;2023-03-21T07:00:45;12.20;99.90
55036;DHT22;40936;53.008;6.556;2023-03-21T07:03:12;12.70;99.90
55036;DHT22;40936;53.008;6.556;2023-03-21T07:05:39;12.50;99.90
55036;DHT22;40936;53.008;6.556;2023-03-21T07:08:06;12.10;99.90
55036;DHT22;40936;53.008;6.556;2023-03-21T07:10:38;12.30;99.90
55036;DHT22;40936;53.008;6.556;2023-03-21T07:13:04;12.00;99.90
55036;DHT22;40936;53.008;6.556;2023-03-21T07:15:29;12.80;99.90
55036;DHT22;40936;53.008;6.556;2023-03-21T07:17:55;12.50;99.90
55036;DHT22;40936;53.008;6.556;2023-03-21T07:20:21;12.90;99.90
55036;DHT22;40936;53.008;6.556;2023-03-21T07:22:47;12.40;99.90
55036;DHT22;40936;53.008;6.556;2023-03-21T07:25:12;12.40;99.90
55036;DHT22;40936;53.008;6.556;2023-03-21T07:27:39;12.50;99.90
55036;DHT22;40936;53.008;6.556;2023-03-21T07:30:05;12.20;99.90
55036;DHT22;40936;53.008;6.556;2023-03-21T07:32:32;12.20;99.90
55036;DHT22;40936;53.008;6.556;2023-03-21T07:34:59;12.90;99.90
55036;DHT22;40936;53.008;6.556;2023-03-21T07:37:25;13.00;99.90
55036;DHT22;40936;53.008;6.556;2023-03-21T07:39:51;12.00;99.90
55036;DHT22;40936;53.008;6.556;2023-03-21T07:42:18;12.20;99.90
55036;DHT22;40936;53.008;6.556;2023-03-21T07:44:44;12.80;99.90
55036;DHT22;40936;53.008;6.556;2023-03-21T07:47:10;12.20;99.90
55036;DHT22;40936;53.008;6.556;2023-03-21T07:49:36;12.50;99.90
55036;DHT22;40936;53.008;6.556;2023-03-21T07:52:02;12.40;99.90
55036;DHT22;40936;53.008;6.556;2023-03-21T07:54:28;12.30;99.90
55036;DHT22;40936;53.008;6.556;2023-03-21T07:56:55;12.90;99.90
55036;DHT22;40936;53.008;6.556;2023-03-21T07:59:21;12.90;99.90
55036;DHT22;40936;53.008;6.556;2023-03-21T08:01:47;13.10;99.90
55036;DHT22;40936;53.008;6.556;2023-03-21T08:04:13;12.10;99.90
55036;DHT22;40936;53.008;6.556;2023-03-21T08:06:39;12.50;99.90
55036;DHT22;40936;53.008;6.556;2023-03-21T08:09:05;12.30;99.90
55036;DHT22;40936;53.008;6.556;2023-03-21T08:11:31;11.00;99.90
55036;DHT22;40936;53.008;6.556;2023-03-21T08:13:57;12.80;99.90
55036;DHT22;40936;53.008;6.556;2023-03-21T08:16:23;12.20;99.90
55036;DHT22;40936;53.008;6.556;2023-03-21T08:18:49;12.20;99.90
55036;DHT22;40936;53.008;6.556;2023-03-21T08:21:14;12.90;99.90
55036;DHT22;40936;53.008;6.556;2023-03-21T08:23:40;12.40;99.90
55036;DHT22;40936;53.008;6.556;2023-03-21T08:26:06;12.90;99.90
55036;DHT22;40936;53.008;6.556;2023-03-21T08:28:34;12.40;99.90
55036;DHT22;40936;53.008;6.556;2023-03-21T08:31:06;12.50;99.90
55036;DHT22;40936;53.008;6.556;2023-03-21T08:33:32;12.50;99.90
55036;DHT22;40936;53.008;6.556;2023-03-21T08:35:59;12.60;99.90
55036;DHT22;40936;53.008;6.556;2023-03-21T08:38:25;12.90;99.90
55036;DHT22;40936;53.008;6.556;2023-03-21T08:40:54;12.40;99.90
55036;DHT22;40936;53.008;6.556;2023-03-21T08:43:21;12.30;99.90
55036;DHT22;40936;53.008;6.556;2023-03-21T08:45:48;12.60;99.90
55036;DHT22;40936;53.008;6.556;2023-03-21T08:48:14;12.30;99.90
55036;DHT22;40936;53.008;6.556;2023-03-21T08:50:40;11.70;99.90
55036;DHT22;40936;53.008;6.556;2023-03-21T08:53:05;12.50;99.90
55036;DHT22;40936;53.008;6.556;2023-03-21T08:55:31;12.70;99.90
55036;DHT22;40936;53.008;6.556;2023-03-21T08:57:58;12.40;99.90
55036;DHT22;40936;53.008;6.556;2023-03-21T09:00:24;13.40;99.90
55036;DHT22;40936;53.008;6.556;2023-03-21T09:02:50;12.90;99.90
55036;DHT22;40936;53.008;6.556;2023-03-21T09:05:17;13.50;99.90
55036;DHT22;40936;53.008;6.556;2023-03-21T09:07:44;13.10;99.90
55036;DHT22;40936;53.008;6.556;2023-03-21T09:10:16;12.70;99.90
55036;DHT22;40936;53.008;6.556;2023-03-21T09:12:42;12.80;99.90
55036;DHT22;40936;53.008;6.556;2023-03-21T09:15:09;13.00;99.90
55036;DHT22;40936;53.008;6.556;2023-03-21T09:17:37;12.70;99.90
55036;DHT22;40936;53.008;6.556;2023-03-21T09:20:08;13.00;99.90
55036;DHT22;40936;53.008;6.556;2023-03-21T09:22:37;13.20;99.90
55036;DHT22;40936;53.008;6.556;2023-03-21T09:25:03;12.80;99.90
55036;DHT22;40936;53.008;6.556;2023-03-21T09:27:35;12.50;99.90
55036;DHT22;40936;53.008;6.556;2023-03-21T09:30:01;12.70;99.90
55036;DHT22;40936;53.008;6.556;2023-03-21T09:32:27;12.80;99.90
55036;DHT22;40936;53.008;6.556;2023-03-21T09:34:54;12.40;99.90
55036;DHT22;40936;53.008;6.556;2023-03-21T09:37:20;12.40;99.90
55036;DHT22;40936;53.008;6.556;2023-03-21T09:39:46;13.00;99.90
55036;DHT22;40936;53.008;6.556;2023-03-21T09:47:47;13.00;99.90
55036;DHT22;40936;53.008;6.556;2023-03-21T09:50:31;12.50;99.90
55036;DHT22;40936;53.008;6.556;2023-03-21T09:53:16;12.50;99.90
55036;DHT22;40936;53.008;6.556;2023-03-21T09:55:44;12.30;99.90
55036;DHT22;40936;53.008;6.556;2023-03-21T09:58:32;12.80;99.90
55036;DHT22;40936;53.008;6.556;2023-03-21T10:03:47;12.30;99.90
55036;DHT22;40936;53.008;6.556;2023-03-21T10:06:15;12.50;99.90
55036;DHT22;40936;53.008;6.556;2023-03-21T10:08:45;12.30;99.90
55036;DHT22;40936;53.008;6.556;2023-03-21T10:13:45;12.80;99.90
55036;DHT22;40936;53.008;6.556;2023-03-21T10:16:15;12.90;99.90
55036;DHT22;40936;53.008;6.556;2023-03-21T10:18:43;12.90;99.90
55036;DHT22;40936;53.008;6.556;2023-03-21T10:21:26;12.40;99.90
55036;DHT22;40936;53.008;6.556;2023-03-21T10:23:55;13.10;99.90
55036;DHT22;40936;53.008;6.556;2023-03-21T10:26:24;12.90;99.90
55036;DHT22;40936;53.008;6.556;2023-03-21T10:28:53;12.60;99.90
55036;DHT22;40936;53.008;6.556;2023-03-21T10:31:25;12.90;99.90
55036;DHT22;40936;53.008;6.556;2023-03-21T10:33:56;13.00;99.90
55036;DHT22;40936;53.008;6.556;2023-03-21T10:36:26;13.10;99.90
55036;DHT22;40936;53.008;6.556;2023-03-21T10:39:01;12.80;99.90
55036;DHT22;40936;53.008;6.556;2023-03-21T10:41:29;12.70;99.90
55036;DHT22;40936;53.008;6.556;2023-03-21T10:44:08;12.90;99.90
55036;DHT22;40936;53.008;6.556;2023-03-21T10:46:36;12.60;99.90
55036;DHT22;40936;53.008;6.556;2023-03-21T10:49:02;12.80;99.90
55036;DHT22;40936;53.008;6.556;2023-03-21T10:51:32;12.80;99.90
55036;DHT22;40936;53.008;6.556;2023-03-21T10:54:04;12.80;99.90
55036;DHT22;40936;53.008;6.556;2023-03-21T10:56:35;13.10;99.90
55036;DHT22;40936;53.008;6.556;2023-03-21T10:59:03;13.30;99.90
55036;DHT22;40936;53.008;6.556;2023-03-21T11:01:39;12.90;99.90
55036;DHT22;40936;53.008;6.556;2023-03-21T11:04:09;13.50;99.90
55036;DHT22;40936;53.008;6.556;2023-03-21T11:06:40;13.00;99.90
55036;DHT22;40936;53.008;6.556;2023-03-21T11:09:15;13.60;99.90
55036;DHT22;40936;53.008;6.556;2023-03-21T11:12:01;13.90;99.90
55036;DHT22;40936;53.008;6.556;2023-03-21T11:14:38;13.70;99.90
55036;DHT22;40936;53.008;6.556;2023-03-21T11:19:58;14.10;99.90
55036;DHT22;40936;53.008;6.556;2023-03-21T11:22:28;14.20;99.90
55036;DHT22;40936;53.008;6.556;2023-03-21T11:25:07;13.60;99.90
55036;DHT22;40936;53.008;6.556;2023-03-21T11:27:33;14.20;99.90
55036;DHT22;40936;53.008;6.556;2023-03-21T11:30:02;13.50;99.90
55036;DHT22;40936;53.008;6.556;2023-03-21T11:32:34;14.00;99.90
55036;DHT22;40936;53.008;6.556;2023-03-21T11:35:16;13.80;99.90
55036;DHT22;40936;53.008;6.556;2023-03-21T11:37:49;13.60;99.90
55036;DHT22;40936;53.008;6.556;2023-03-21T11:40:30;14.30;99.90
55036;DHT22;40936;53.008;6.556;2023-03-21T11:48:38;14.20;99.90
55036;DHT22;40936;53.008;6.556;2023-03-21T11:51:59;13.80;99.90
55036;DHT22;40936;53.008;6.556;2023-03-21T11:56:43;14.40;99.90
55036;DHT22;40936;53.008;6.556;2023-03-21T12:05:17;13.50;99.90
55036;DHT22;40936;53.008;6.556;2023-03-21T12:13:21;14.00;99.90
55036;DHT22;40936;53.008;6.556;2023-03-21T12:21:19;14.30;99.90
55036;DHT22;40936;53.008;6.556;2023-03-21T12:27:13;14.10;99.90
55036;DHT22;40936;53.008;6.556;2023-03-21T12:32:06;13.40;99.90
55036;DHT22;40936;53.008;6.556;2023-03-21T12:37:43;13.90;99.90
55036;DHT22;40936;53.008;6.556;2023-03-21T12:45:35;13.80;99.90
55036;DHT22;40936;53.008;6.556;2023-03-21T12:50:44;13.30;99.90
55036;DHT22;40936;53.008;6.556;2023-03-21T12:53:23;13.90;99.90
55036;DHT22;40936;53.008;6.556;2023-03-21T12:55:50;13.30;99.90
55036;DHT22;40936;53.008;6.556;2023-03-21T12:58:20;13.90;99.90
55036;DHT22;40936;53.008;6.556;2023-03-21T13:00:52;13.30;99.90
55036;DHT22;40936;53.008;6.556;2023-03-21T13:03:25;13.90;99.90
55036;DHT22;40936;53.008;6.556;2023-03-21T13:05:56;14.00;99.90
55036;DHT22;40936;53.008;6.556;2023-03-21T13:10:59;14.10;99.90
55036;DHT22;40936;53.008;6.556;2023-03-21T13:16:08;13.50;99.90
55036;DHT22;40936;53.008;6.556;2023-03-21T13:21:11;14.00;99.90
55036;DHT22;40936;53.008;6.556;2023-03-21T13:23:39;13.90;99.90
55036;DHT22;40936;53.008;6.556;2023-03-21T13:26:09;14.60;99.90
55036;DHT22;40936;53.008;6.556;2023-03-21T13:28:39;14.70;99.90
55036;DHT22;40936;53.008;6.556;2023-03-21T13:31:18;14.00;99.90
55036;DHT22;40936;53.008;6.556;2023-03-21T13:33:49;14.10;99.90
55036;DHT22;40936;53.008;6.556;2023-03-21T13:36:28;14.40;99.90
55036;DHT22;40936;53.008;6.556;2023-03-21T13:39:00;14.70;99.90
55036;DHT22;40936;53.008;6.556;2023-03-21T13:41:31;14.80;99.90
55036;DHT22;40936;53.008;6.556;2023-03-21T13:59:36;14.50;99.90
55036;DHT22;40936;53.008;6.556;2023-03-21T14:02:31;14.20;99.90
55036;DHT22;40936;53.008;6.556;2023-03-21T14:05:22;14.50;99.90
55036;DHT22;40936;53.008;6.556;2023-03-21T14:07:48;14.30;99.90
55036;DHT22;40936;53.008;6.556;2023-03-21T14:10:29;14.90;99.90
55036;DHT22;40936;53.008;6.556;2023-03-21T14:12:58;14.40;99.90
55036;DHT22;40936;53.008;6.556;2023-03-21T14:15:32;14.70;99.90
55036;DHT22;40936;53.008;6.556;2023-03-21T14:18:02;14.70;99.90
55036;DHT22;40936;53.008;6.556;2023-03-21T14:20:36;14.60;99.90
55036;DHT22;40936;53.008;6.556;2023-03-21T14:23:07;15.00;99.90
55036;DHT22;40936;53.008;6.556;2023-03-21T14:25:38;14.60;99.90
55036;DHT22;40936;53.008;6.556;2023-03-21T14:28:07;14.90;99.90
55036;DHT22;40936;53.008;6.556;2023-03-21T14:30:40;14.90;99.90
55036;DHT22;40936;53.008;6.556;2023-03-21T14:35:48;14.30;99.90
55036;DHT22;40936;53.008;6.556;2023-03-21T14:38:26;14.60;99.90
55036;DHT22;40936;53.008;6.556;2023-03-21T14:40:53;14.30;99.90
55036;DHT22;40936;53.008;6.556;2023-03-21T14:43:22;14.60;99.90
55036;DHT22;40936;53.008;6.556;2023-03-21T14:45:50;14.50;99.90
55036;DHT22;40936;53.008;6.556;2023-03-21T14:48:21;14.50;99.90
55036;DHT22;40936;53.008;6.556;2023-03-21T14:50:55;14.70;99.90
55036;DHT22;40936;53.008;6.556;2023-03-21T14:53:28;14.40;99.90
55036;DHT22;40936;53.008;6.556;2023-03-21T14:58:33;14.60;99.90
55036;DHT22;40936;53.008;6.556;2023-03-21T15:01:05;14.40;99.90
55036;DHT22;40936;53.008;6.556;2023-03-21T15:03:33;14.80;99.90
55036;DHT22;40936;53.008;6.556;2023-03-21T15:05:59;14.70;99.90
55036;DHT22;40936;53.008;6.556;2023-03-21T15:08:27;14.40;99.90
55036;DHT22;40936;53.008;6.556;2023-03-21T15:10:58;14.50;99.90
55036;DHT22;40936;53.008;6.556;2023-03-21T15:13:27;14.40;99.90
55036;DHT22;40936;53.008;6.556;2023-03-21T15:15:53;14.20;99.90
55036;DHT22;40936;53.008;6.556;2023-03-21T15:18:30;14.40;99.90
55036;DHT22;40936;53.008;6.556;2023-03-21T15:21:01;14.30;99.90
55036;DHT22;40936;53.008;6.556;2023-03-21T15:23:34;14.30;99.90
55036;DHT22;40936;53.008;6.556;2023-03-21T15:26:02;14.30;99.90
55036;DHT22;40936;53.008;6.556;2023-03-21T15:28:28;14.30;99.90
55036;DHT22;40936;53.008;6.556;2023-03-21T15:30:55;14.20;99.90
55036;DHT22;40936;53.008;6.556;2023-03-21T15:33:23;14.40;99.90
55036;DHT22;40936;53.008;6.556;2023-03-21T15:35:57;14.30;99.90
55036;DHT22;40936;53.008;6.556;2023-03-21T15:38:41;14.50;99.90
55036;DHT22;40936;53.008;6.556;2023-03-21T15:41:35;14.40;99.90
55036;DHT22;40936;53.008;6.556;2023-03-21T15:46:50;14.30;99.90
55036;DHT22;40936;53.008;6.556;2023-03-21T15:49:32;14.10;99.90
55036;DHT22;40936;53.008;6.556;2023-03-21T15:52:06;14.10;99.90
55036;DHT22;40936;53.008;6.556;2023-03-21T15:54:42;14.10;99.90
55036;DHT22;40936;53.008;6.556;2023-03-21T15:57:38;14.00;99.90
55036;DHT22;40936;53.008;6.556;2023-03-21T16:00:59;13.90;1.00
55036;DHT22;40936;53.008;6.556;2023-03-21T16:03:12;13.90;90.10
55036;DHT22;40936;53.008;6.556;2023-03-21T16:05:41;14.00;99.90
55036;DHT22;40936;53.008;6.556;2023-03-21T16:08:19;14.00;52.00
55036;DHT22;40936;53.008;6.556;2023-03-21T16:10:46;14.00;99.90
55036;DHT22;40936;53.008;6.556;2023-03-21T16:13:13;14.00;99.90
55036;DHT22;40936;53.008;6.556;2023-03-21T16:15:39;15.00;1.00
55036;DHT22;40936;53.008;6.556;2023-03-21T16:18:06;14.00;99.90
55036;DHT22;40936;53.008;6.556;2023-03-21T16:20:39;13.90;99.90
55036;DHT22;40936;53.008;6.556;2023-03-21T16:23:10;14.00;99.90
55036;DHT22;40936;53.008;6.556;2023-03-21T16:25:37;14.00;99.90
55036;DHT22;40936;53.008;6.556;2023-03-21T16:28:05;14.00;1.00
55036;DHT22;40936;53.008;6.556;2023-03-21T16:30:44;14.00;99.90
55036;DHT22;40936;53.008;6.556;2023-03-21T16:33:11;14.00;99.90
55036;DHT22;40936;53.008;6.556;2023-03-21T16:35:37;14.00;99.90
55036;DHT22;40936;53.008;6.556;2023-03-21T16:38:03;13.90;1.00
55036;DHT22;40936;53.008;6.556;2023-03-21T16:40:37;13.90;99.90
55036;DHT22;40936;53.008;6.556;2023-03-21T16:43:03;13.80;99.90
55036;DHT22;40936;53.008;6.556;2023-03-21T16:45:29;13.80;1.00
55036;DHT22;40936;53.008;6.556;2023-03-21T16:47:57;13.70;4.50
55036;DHT22;40936;53.008;6.556;2023-03-21T16:53:16;13.00;99.90
55036;DHT22;40936;53.008;6.556;2023-03-21T16:55:48;13.00;99.90
55036;DHT22;40936;53.008;6.556;2023-03-21T16:58:14;12.90;99.90
55036;DHT22;40936;53.008;6.556;2023-03-21T17:00:40;13.00;99.90
55036;DHT22;40936;53.008;6.556;2023-03-21T17:03:15;13.00;99.90
55036;DHT22;40936;53.008;6.556;2023-03-21T17:05:43;12.80;99.90
55036;DHT22;40936;53.008;6.556;2023-03-21T17:08:17;13.00;99.90
55036;DHT22;40936;53.008;6.556;2023-03-21T17:10:44;13.00;99.90
55036;DHT22;40936;53.008;6.556;2023-03-21T17:13:10;12.70;99.90
55036;DHT22;40936;53.008;6.556;2023-03-21T17:15:37;12.80;99.90
55036;DHT22;40936;53.008;6.556;2023-03-21T17:18:03;12.90;99.90
55036;DHT22;40936;53.008;6.556;2023-03-21T17:20:31;12.90;99.90
55036;DHT22;40936;53.008;6.556;2023-03-21T17:22:57;12.60;99.90
55036;DHT22;40936;53.008;6.556;2023-03-21T17:25:23;12.50;99.90
55036;DHT22;40936;53.008;6.556;2023-03-21T17:27:49;12.80;99.90
55036;DHT22;40936;53.008;6.556;2023-03-21T17:30:27;12.50;99.90
55036;DHT22;40936;53.008;6.556;2023-03-21T17:32:54;12.40;99.90
55036;DHT22;40936;53.008;6.556;2023-03-21T17:35:20;12.60;99.90
55036;DHT22;40936;53.008;6.556;2023-03-21T17:37:47;12.40;99.90
55036;DHT22;40936;53.008;6.556;2023-03-21T17:40:21;12.40;99.90
55036;DHT22;40936;53.008;6.556;2023-03-21T17:42:48;12.60;99.90
55036;DHT22;40936;53.008;6.556;2023-03-21T17:45:15;12.40;99.90
55036;DHT22;40936;53.008;6.556;2023-03-21T17:47:41;12.40;99.90
55036;DHT22;40936;53.008;6.556;2023-03-21T17:50:19;12.40;99.90
55036;DHT22;40936;53.008;6.556;2023-03-21T17:52:46;12.50;99.90